sensor_id;sensor_type;location;lat;lon;timestamp;temperature;humidity
46754;DHT22;32500;50.620;3.400;2023-09-19T00:01:18;18.80;92.40
46754;DHT22;32500;50.620;3.400;2023-09-19T00:03:45;18.70;92.60
46754;DHT22;32500;50.620;3.400;2023-09-19T00:06:11;18.80;92.40
46754;DHT22;32500;50.620;3.400;2023-09-19T00:08:41;18.80;92.40
46754;DHT22;32500;50.620;3.400;2023-09-19T00:11:09;18.70;92.50
46754;DHT22;32500;50.620;3.400;2023-09-19T00:13:36;18.80;92.30
46754;DHT22;32500;50.620;3.400;2023-09-19T00:16:08;18.70;92.30
46754;DHT22;32500;50.620;3.400;2023-09-19T00:18:34;18.70;92.50
46754;DHT22;32500;50.620;3.400;2023-09-19T00:21:00;18.70;93.20
46754;DHT22;32500;50.620;3.400;2023-09-19T00:23:26;18.70;92.30
46754;DHT22;32500;50.620;3.400;2023-09-19T00:25:52;18.70;92.50
46754;DHT22;32500;50.620;3.400;2023-09-19T00:28:23;18.70;92.20
46754;DHT22;32500;50.620;3.400;2023-09-19T00:30:48;18.70;92.50
46754;DHT22;32500;50.620;3.400;2023-09-19T00:33:20;18.60;92.40
46754;DHT22;32500;50.620;3.400;2023-09-19T00:35:53;18.60;92.40
46754;DHT22;32500;50.620;3.400;2023-09-19T00:38:20;18.60;92.70
46754;DHT22;32500;50.620;3.400;2023-09-19T00:40:48;18.60;92.40
46754;DHT22;32500;50.620;3.400;2023-09-19T00:43:15;18.60;92.40
46754;DHT22;32500;50.620;3.400;2023-09-19T00:45:44;18.60;92.20
46754;DHT22;32500;50.620;3.400;2023-09-19T00:48:11;18.60;92.30
46754;DHT22;32500;50.620;3.400;2023-09-19T00:50:38;18.60;92.70
46754;DHT22;32500;50.620;3.400;2023-09-19T00:53:07;18.60;92.90
46754;DHT22;32500;50.620;3.400;2023-09-19T00:55:34;18.60;92.30
46754;DHT22;32500;50.620;3.400;2023-09-19T00:58:00;18.60;92.80
46754;DHT22;32500;50.620;3.400;2023-09-19T01:00:25;18.60;92.50
46754;DHT22;32500;50.620;3.400;2023-09-19T01:02:51;18.60;92.20
46754;DHT22;32500;50.620;3.400;2023-09-19T01:07:46;18.70;92.30
46754;DHT22;32500;50.620;3.400;2023-09-19T01:10:17;18.70;92.40
46754;DHT22;32500;50.620;3.400;2023-09-19T01:13:28;18.70;92.50
46754;DHT22;32500;50.620;3.400;2023-09-19T01:16:03;18.70;92.50
46754;DHT22;32500;50.620;3.400;2023-09-19T01:18:38;18.70;92.10
46754;DHT22;32500;50.620;3.400;2023-09-19T01:32:03;18.70;92.10
46754;DHT22;32500;50.620;3.400;2023-09-19T01:37:16;18.70;91.60
46754;DHT22;32500;50.620;3.400;2023-09-19T01:40:01;18.70;91.40
46754;DHT22;32500;50.620;3.400;2023-09-19T01:48:12;18.70;91.50
46754;DHT22;32500;50.620;3.400;2023-09-19T01:50:46;18.70;91.20
46754;DHT22;32500;50.620;3.400;2023-09-19T01:53:35;18.70;91.50
46754;DHT22;32500;50.620;3.400;2023-09-19T01:56:05;18.60;91.20
46754;DHT22;32500;50.620;3.400;2023-09-19T01:58:46;18.60;92.00
46754;DHT22;32500;50.620;3.400;2023-09-19T02:01:17;18.60;91.70
46754;DHT22;32500;50.620;3.400;2023-09-19T02:03:44;18.60;91.10
46754;DHT22;32500;50.620;3.400;2023-09-19T02:06:17;18.60;91.60
46754;DHT22;32500;50.620;3.400;2023-09-19T02:08:45;18.60;91.80
46754;DHT22;32500;50.620;3.400;2023-09-19T02:11:11;18.60;91.70
46754;DHT22;32500;50.620;3.400;2023-09-19T02:13:38;18.50;91.70
46754;DHT22;32500;50.620;3.400;2023-09-19T02:16:04;18.60;91.40
46754;DHT22;32500;50.620;3.400;2023-09-19T02:18:30;18.50;92.10
46754;DHT22;32500;50.620;3.400;2023-09-19T02:20:56;18.50;91.70
46754;DHT22;32500;50.620;3.400;2023-09-19T02:23:24;18.50;91.70
46754;DHT22;32500;50.620;3.400;2023-09-19T02:25:54;18.50;91.70
46754;DHT22;32500;50.620;3.400;2023-09-19T02:28:20;18.50;91.90
46754;DHT22;32500;50.620;3.400;2023-09-19T02:30:49;18.50;91.70
46754;DHT22;32500;50.620;3.400;2023-09-19T02:33:15;18.50;92.20
46754;DHT22;32500;50.620;3.400;2023-09-19T02:35:42;18.50;92.30
46754;DHT22;32500;50.620;3.400;2023-09-19T02:38:08;18.50;92.30
46754;DHT22;32500;50.620;3.400;2023-09-19T02:40:37;18.50;92.00
46754;DHT22;32500;50.620;3.400;2023-09-19T02:43:03;18.50;91.50
46754;DHT22;32500;50.620;3.400;2023-09-19T02:45:28;18.50;91.80
46754;DHT22;32500;50.620;3.400;2023-09-19T02:47:55;18.50;91.90
46754;DHT22;32500;50.620;3.400;2023-09-19T02:50:21;18.50;92.20
46754;DHT22;32500;50.620;3.400;2023-09-19T02:52:47;18.50;91.60
46754;DHT22;32500;50.620;3.400;2023-09-19T02:55:15;18.50;91.90
46754;DHT22;32500;50.620;3.400;2023-09-19T02:57:51;18.40;92.10
46754;DHT22;32500;50.620;3.400;2023-09-19T03:00:18;18.50;92.00
46754;DHT22;32500;50.620;3.400;2023-09-19T03:02:54;18.40;92.20
46754;DHT22;32500;50.620;3.400;2023-09-19T03:05:20;18.40;92.30
46754;DHT22;32500;50.620;3.400;2023-09-19T03:07:47;18.40;92.20
46754;DHT22;32500;50.620;3.400;2023-09-19T03:10:17;18.40;92.20
46754;DHT22;32500;50.620;3.400;2023-09-19T03:12:43;18.40;92.20
46754;DHT22;32500;50.620;3.400;2023-09-19T03:15:09;18.40;92.00
46754;DHT22;32500;50.620;3.400;2023-09-19T03:17:35;18.40;92.10
46754;DHT22;32500;50.620;3.400;2023-09-19T03:20:02;18.40;92.10
46754;DHT22;32500;50.620;3.400;2023-09-19T03:22:28;18.40;92.20
46754;DHT22;32500;50.620;3.400;2023-09-19T03:24:54;18.30;92.20
46754;DHT22;32500;50.620;3.400;2023-09-19T03:27:19;18.30;92.30
46754;DHT22;32500;50.620;3.400;2023-09-19T03:29:46;18.40;92.50
46754;DHT22;32500;50.620;3.400;2023-09-19T03:32:12;18.30;92.10
46754;DHT22;32500;50.620;3.400;2023-09-19T03:34:38;18.30;92.40
46754;DHT22;32500;50.620;3.400;2023-09-19T03:37:09;18.30;92.30
46754;DHT22;32500;50.620;3.400;2023-09-19T03:39:35;18.30;92.60
46754;DHT22;32500;50.620;3.400;2023-09-19T03:42:02;18.40;92.10
46754;DHT22;32500;50.620;3.400;2023-09-19T03:44:29;18.30;92.20
46754;DHT22;32500;50.620;3.400;2023-09-19T03:46:55;18.30;92.30
46754;DHT22;32500;50.620;3.400;2023-09-19T03:49:22;18.30;92.50
46754;DHT22;32500;50.620;3.400;2023-09-19T03:51:47;18.30;92.50
46754;DHT22;32500;50.620;3.400;2023-09-19T03:54:13;18.30;92.60
46754;DHT22;32500;50.620;3.400;2023-09-19T03:59:06;18.20;92.60
46754;DHT22;32500;50.620;3.400;2023-09-19T04:01:33;18.30;92.80
46754;DHT22;32500;50.620;3.400;2023-09-19T04:03:59;18.20;92.20
46754;DHT22;32500;50.620;3.400;2023-09-19T04:06:36;18.20;92.50
46754;DHT22;32500;50.620;3.400;2023-09-19T04:09:03;18.10;92.70
46754;DHT22;32500;50.620;3.400;2023-09-19T04:11:29;18.10;93.00
46754;DHT22;32500;50.620;3.400;2023-09-19T04:13:56;18.10;92.60
46754;DHT22;32500;50.620;3.400;2023-09-19T04:16:21;18.10;92.40
46754;DHT22;32500;50.620;3.400;2023-09-19T04:18:47;18.00;92.60
46754;DHT22;32500;50.620;3.400;2023-09-19T04:21:12;18.10;92.90
46754;DHT22;32500;50.620;3.400;2023-09-19T04:23:38;18.10;92.70
46754;DHT22;32500;50.620;3.400;2023-09-19T04:26:04;18.10;92.30
46754;DHT22;32500;50.620;3.400;2023-09-19T04:28:30;18.00;92.60
46754;DHT22;32500;50.620;3.400;2023-09-19T04:30:57;18.00;92.90
46754;DHT22;32500;50.620;3.400;2023-09-19T04:33:24;18.10;92.90
46754;DHT22;32500;50.620;3.400;2023-09-19T04:35:50;18.10;92.60
46754;DHT22;32500;50.620;3.400;2023-09-19T04:48:23;18.10;92.90
46754;DHT22;32500;50.620;3.400;2023-09-19T04:51:15;18.00;93.00
46754;DHT22;32500;50.620;3.400;2023-09-19T04:53:48;18.00;92.90
46754;DHT22;32500;50.620;3.400;2023-09-19T04:56:14;18.10;92.80
46754;DHT22;32500;50.620;3.400;2023-09-19T05:04:34;18.10;93.30
46754;DHT22;32500;50.620;3.400;2023-09-19T05:07:19;18.10;93.00
46754;DHT22;32500;50.620;3.400;2023-09-19T05:09:51;18.10;93.60
46754;DHT22;32500;50.620;3.400;2023-09-19T05:12:17;18.00;93.10
46754;DHT22;32500;50.620;3.400;2023-09-19T05:14:48;18.00;93.10
46754;DHT22;32500;50.620;3.400;2023-09-19T05:17:19;18.00;93.60
46754;DHT22;32500;50.620;3.400;2023-09-19T05:20:03;18.00;93.60
46754;DHT22;32500;50.620;3.400;2023-09-19T05:25:34;18.00;93.10
46754;DHT22;32500;50.620;3.400;2023-09-19T05:28:17;18.00;93.80
46754;DHT22;32500;50.620;3.400;2023-09-19T05:30:46;18.00;93.40
46754;DHT22;32500;50.620;3.400;2023-09-19T05:33:14;18.00;93.70
46754;DHT22;32500;50.620;3.400;2023-09-19T05:35:48;18.00;93.50
46754;DHT22;32500;50.620;3.400;2023-09-19T05:38:14;18.00;93.80
46754;DHT22;32500;50.620;3.400;2023-09-19T05:41:18;18.00;93.90
46754;DHT22;32500;50.620;3.400;2023-09-19T05:43:49;18.00;94.60
46754;DHT22;32500;50.620;3.400;2023-09-19T05:49:14;18.00;93.90
46754;DHT22;32500;50.620;3.400;2023-09-19T05:52:03;18.00;93.30
46754;DHT22;32500;50.620;3.400;2023-09-19T05:54:34;18.00;94.40
46754;DHT22;32500;50.620;3.400;2023-09-19T05:57:14;18.00;94.50
46754;DHT22;32500;50.620;3.400;2023-09-19T05:59:43;18.00;94.30
46754;DHT22;32500;50.620;3.400;2023-09-19T06:02:17;18.00;94.50
46754;DHT22;32500;50.620;3.400;2023-09-19T06:04:48;18.00;94.20
46754;DHT22;32500;50.620;3.400;2023-09-19T06:07:43;18.00;94.40
46754;DHT22;32500;50.620;3.400;2023-09-19T06:10:12;18.10;94.40
46754;DHT22;32500;50.620;3.400;2023-09-19T06:13:06;18.10;94.20
46754;DHT22;32500;50.620;3.400;2023-09-19T06:15:43;18.10;94.00
46754;DHT22;32500;50.620;3.400;2023-09-19T06:18:15;18.10;93.70
46754;DHT22;32500;50.620;3.400;2023-09-19T06:20:46;18.10;93.80
46754;DHT22;32500;50.620;3.400;2023-09-19T06:23:12;18.10;93.80
46754;DHT22;32500;50.620;3.400;2023-09-19T06:25:46;18.10;93.80
46754;DHT22;32500;50.620;3.400;2023-09-19T06:28:13;18.10;93.80
46754;DHT22;32500;50.620;3.400;2023-09-19T06:30:42;18.10;93.50
46754;DHT22;32500;50.620;3.400;2023-09-19T06:33:18;18.10;93.40
46754;DHT22;32500;50.620;3.400;2023-09-19T06:35:54;18.10;93.90
46754;DHT22;32500;50.620;3.400;2023-09-19T06:39:08;18.20;93.40
46754;DHT22;32500;50.620;3.400;2023-09-19T06:41:49;18.20;93.40
46754;DHT22;32500;50.620;3.400;2023-09-19T06:44:15;18.20;93.40
46754;DHT22;32500;50.620;3.400;2023-09-19T06:49:44;18.30;93.00
46754;DHT22;32500;50.620;3.400;2023-09-19T06:52:18;18.30;93.50
46754;DHT22;32500;50.620;3.400;2023-09-19T06:54:48;18.40;92.60
46754;DHT22;32500;50.620;3.400;2023-09-19T07:00:06;18.40;92.70
46754;DHT22;32500;50.620;3.400;2023-09-19T07:03:15;18.50;92.40
46754;DHT22;32500;50.620;3.400;2023-09-19T07:05:49;18.60;92.30
46754;DHT22;32500;50.620;3.400;2023-09-19T07:08:15;18.60;92.60
46754;DHT22;32500;50.620;3.400;2023-09-19T07:11:16;18.60;92.30
46754;DHT22;32500;50.620;3.400;2023-09-19T07:14:18;18.70;92.10
46754;DHT22;32500;50.620;3.400;2023-09-19T07:16:45;18.60;92.10
46754;DHT22;32500;50.620;3.400;2023-09-19T07:19:16;18.70;91.90
46754;DHT22;32500;50.620;3.400;2023-09-19T07:21:44;18.70;92.10
46754;DHT22;32500;50.620;3.400;2023-09-19T07:30:14;18.90;91.50
46754;DHT22;32500;50.620;3.400;2023-09-19T07:33:14;18.90;91.30
46754;DHT22;32500;50.620;3.400;2023-09-19T07:35:48;18.90;91.20
46754;DHT22;32500;50.620;3.400;2023-09-19T07:38:13;19.00;91.50
46754;DHT22;32500;50.620;3.400;2023-09-19T07:41:14;19.00;91.20
46754;DHT22;32500;50.620;3.400;2023-09-19T07:43:40;19.10;90.90
46754;DHT22;32500;50.620;3.400;2023-09-19T07:46:18;19.10;90.60
46754;DHT22;32500;50.620;3.400;2023-09-19T07:49:13;19.10;90.80
46754;DHT22;32500;50.620;3.400;2023-09-19T07:58:07;19.30;90.30
46754;DHT22;32500;50.620;3.400;2023-09-19T08:04:46;19.30;90.30
46754;DHT22;32500;50.620;3.400;2023-09-19T08:07:12;19.30;89.60
46754;DHT22;32500;50.620;3.400;2023-09-19T08:10:13;19.40;90.10
46754;DHT22;32500;50.620;3.400;2023-09-19T08:15:46;19.40;89.70
46754;DHT22;32500;50.620;3.400;2023-09-19T08:18:48;19.50;89.80
46754;DHT22;32500;50.620;3.400;2023-09-19T08:21:19;19.50;89.10
46754;DHT22;32500;50.620;3.400;2023-09-19T08:23:51;19.60;89.30
46754;DHT22;32500;50.620;3.400;2023-09-19T08:26:42;19.60;88.70
46754;DHT22;32500;50.620;3.400;2023-09-19T08:29:43;19.60;88.30
46754;DHT22;32500;50.620;3.400;2023-09-19T08:32:15;19.60;88.50
46754;DHT22;32500;50.620;3.400;2023-09-19T08:35:10;19.60;88.40
46754;DHT22;32500;50.620;3.400;2023-09-19T08:37:54;19.70;88.10
46754;DHT22;32500;50.620;3.400;2023-09-19T08:41:05;19.70;87.70
46754;DHT22;32500;50.620;3.400;2023-09-19T08:43:43;19.80;87.80
46754;DHT22;32500;50.620;3.400;2023-09-19T08:46:15;19.80;87.40
46754;DHT22;32500;50.620;3.400;2023-09-19T08:48:51;19.90;87.00
46754;DHT22;32500;50.620;3.400;2023-09-19T08:52:43;19.90;86.90
46754;DHT22;32500;50.620;3.400;2023-09-19T08:55:17;19.90;86.20
46754;DHT22;32500;50.620;3.400;2023-09-19T08:57:49;20.00;86.00
46754;DHT22;32500;50.620;3.400;2023-09-19T09:00:51;20.00;86.00
46754;DHT22;32500;50.620;3.400;2023-09-19T09:04:06;20.10;85.50
46754;DHT22;32500;50.620;3.400;2023-09-19T09:06:39;20.10;85.60
46754;DHT22;32500;50.620;3.400;2023-09-19T09:09:15;20.20;85.40
46754;DHT22;32500;50.620;3.400;2023-09-19T09:11:43;20.20;85.10
46754;DHT22;32500;50.620;3.400;2023-09-19T09:14:25;20.20;85.00
46754;DHT22;32500;50.620;3.400;2023-09-19T09:17:00;20.30;84.90
46754;DHT22;32500;50.620;3.400;2023-09-19T09:19:35;20.30;84.70
46754;DHT22;32500;50.620;3.400;2023-09-19T09:22:31;20.40;84.50
46754;DHT22;32500;50.620;3.400;2023-09-19T09:25:18;20.40;84.20
46754;DHT22;32500;50.620;3.400;2023-09-19T09:27:46;20.50;83.60
46754;DHT22;32500;50.620;3.400;2023-09-19T09:34:11;20.50;83.30
46754;DHT22;32500;50.620;3.400;2023-09-19T09:37:05;20.50;83.50
46754;DHT22;32500;50.620;3.400;2023-09-19T09:39:40;20.50;83.30
46754;DHT22;32500;50.620;3.400;2023-09-19T09:42:08;20.50;83.20
46754;DHT22;32500;50.620;3.400;2023-09-19T09:44:42;20.50;82.70
46754;DHT22;32500;50.620;3.400;2023-09-19T09:47:42;20.50;82.60
46754;DHT22;32500;50.620;3.400;2023-09-19T09:50:47;20.50;83.10
46754;DHT22;32500;50.620;3.400;2023-09-19T09:53:32;20.50;83.40
46754;DHT22;32500;50.620;3.400;2023-09-19T09:56:11;20.50;83.00
46754;DHT22;32500;50.620;3.400;2023-09-19T10:05:44;20.40;83.20
46754;DHT22;32500;50.620;3.400;2023-09-19T10:08:17;20.50;83.60
46754;DHT22;32500;50.620;3.400;2023-09-19T10:10:47;20.40;83.70
46754;DHT22;32500;50.620;3.400;2023-09-19T10:13:37;20.40;83.80
46754;DHT22;32500;50.620;3.400;2023-09-19T10:16:12;20.40;83.80
46754;DHT22;32500;50.620;3.400;2023-09-19T10:19:04;20.40;83.50
46754;DHT22;32500;50.620;3.400;2023-09-19T10:21:44;20.40;83.60
46754;DHT22;32500;50.620;3.400;2023-09-19T10:24:11;20.40;83.50
46754;DHT22;32500;50.620;3.400;2023-09-19T10:26:44;20.40;84.00
46754;DHT22;32500;50.620;3.400;2023-09-19T10:29:45;20.50;83.70
46754;DHT22;32500;50.620;3.400;2023-09-19T10:32:49;20.50;83.80
46754;DHT22;32500;50.620;3.400;2023-09-19T10:35:47;20.50;83.40
46754;DHT22;32500;50.620;3.400;2023-09-19T10:38:40;20.50;83.30
46754;DHT22;32500;50.620;3.400;2023-09-19T10:41:29;20.60;83.20
46754;DHT22;32500;50.620;3.400;2023-09-19T10:49:53;20.70;83.50
46754;DHT22;32500;50.620;3.400;2023-09-19T10:52:46;20.80;82.70
46754;DHT22;32500;50.620;3.400;2023-09-19T10:55:19;20.80;82.40
46754;DHT22;32500;50.620;3.400;2023-09-19T10:57:47;20.80;81.90
46754;DHT22;32500;50.620;3.400;2023-09-19T11:00:37;20.90;81.30
46754;DHT22;32500;50.620;3.400;2023-09-19T11:03:41;20.90;81.90
46754;DHT22;32500;50.620;3.400;2023-09-19T11:06:59;21.00;80.90
46754;DHT22;32500;50.620;3.400;2023-09-19T11:12:49;21.10;80.80
46754;DHT22;32500;50.620;3.400;2023-09-19T11:16:02;21.20;80.40
46754;DHT22;32500;50.620;3.400;2023-09-19T11:31:43;21.50;79.70
46754;DHT22;32500;50.620;3.400;2023-09-19T11:33:48;21.60;79.00
46754;DHT22;32500;50.620;3.400;2023-09-19T11:36:42;21.80;78.50
46754;DHT22;32500;50.620;3.400;2023-09-19T11:39:31;21.80;78.30
46754;DHT22;32500;50.620;3.400;2023-09-19T11:48:37;22.00;77.70
46754;DHT22;32500;50.620;3.400;2023-09-19T11:51:46;22.10;77.70
46754;DHT22;32500;50.620;3.400;2023-09-19T11:54:48;22.10;77.40
46754;DHT22;32500;50.620;3.400;2023-09-19T11:57:34;22.10;76.50
46754;DHT22;32500;50.620;3.400;2023-09-19T12:00:07;22.10;76.90
46754;DHT22;32500;50.620;3.400;2023-09-19T12:06:12;22.20;77.00
46754;DHT22;32500;50.620;3.400;2023-09-19T12:09:23;22.10;76.40
46754;DHT22;32500;50.620;3.400;2023-09-19T12:12:39;22.10;76.30
46754;DHT22;32500;50.620;3.400;2023-09-19T12:15:37;22.20;76.30
46754;DHT22;32500;50.620;3.400;2023-09-19T12:21:31;22.00;76.10
46754;DHT22;32500;50.620;3.400;2023-09-19T12:24:18;22.00;77.90
46754;DHT22;32500;50.620;3.400;2023-09-19T12:27:19;22.00;76.90
46754;DHT22;32500;50.620;3.400;2023-09-19T12:29:47;21.90;77.10
46754;DHT22;32500;50.620;3.400;2023-09-19T12:32:44;21.90;77.10
46754;DHT22;32500;50.620;3.400;2023-09-19T12:35:30;21.90;77.20
46754;DHT22;32500;50.620;3.400;2023-09-19T12:38:04;22.00;78.10
46754;DHT22;32500;50.620;3.400;2023-09-19T12:41:02;22.00;77.10
46754;DHT22;32500;50.620;3.400;2023-09-19T12:43:42;22.00;77.10
46754;DHT22;32500;50.620;3.400;2023-09-19T12:46:46;22.00;76.90
46754;DHT22;32500;50.620;3.400;2023-09-19T12:49:27;22.00;77.00
46754;DHT22;32500;50.620;3.400;2023-09-19T12:51:59;22.00;76.80
46754;DHT22;32500;50.620;3.400;2023-09-19T12:54:43;22.00;76.90
46754;DHT22;32500;50.620;3.400;2023-09-19T12:57:30;22.00;76.80
46754;DHT22;32500;50.620;3.400;2023-09-19T13:00:06;22.00;76.70
46754;DHT22;32500;50.620;3.400;2023-09-19T13:02:43;22.10;76.50
46754;DHT22;32500;50.620;3.400;2023-09-19T13:09:07;22.00;76.50
46754;DHT22;32500;50.620;3.400;2023-09-19T13:14:36;22.00;76.30
46754;DHT22;32500;50.620;3.400;2023-09-19T13:20:05;22.00;76.90
46754;DHT22;32500;50.620;3.400;2023-09-19T13:22:47;22.00;76.70
46754;DHT22;32500;50.620;3.400;2023-09-19T13:25:47;22.10;76.70
46754;DHT22;32500;50.620;3.400;2023-09-19T13:31:42;22.10;76.50
46754;DHT22;32500;50.620;3.400;2023-09-19T13:34:14;22.20;76.20
46754;DHT22;32500;50.620;3.400;2023-09-19T13:36:45;22.20;75.80
46754;DHT22;32500;50.620;3.400;2023-09-19T13:39:16;22.20;76.00
46754;DHT22;32500;50.620;3.400;2023-09-19T13:41:47;22.20;76.00
46754;DHT22;32500;50.620;3.400;2023-09-19T13:44:46;22.20;76.00
46754;DHT22;32500;50.620;3.400;2023-09-19T13:47:23;22.20;75.90
46754;DHT22;32500;50.620;3.400;2023-09-19T13:49:57;22.20;76.00
46754;DHT22;32500;50.620;3.400;2023-09-19T13:52:23;22.20;75.90
46754;DHT22;32500;50.620;3.400;2023-09-19T13:55:07;22.20;76.10
46754;DHT22;32500;50.620;3.400;2023-09-19T13:57:41;22.20;76.00
46754;DHT22;32500;50.620;3.400;2023-09-19T14:00:14;22.20;76.00
46754;DHT22;32500;50.620;3.400;2023-09-19T14:02:55;22.10;76.20
46754;DHT22;32500;50.620;3.400;2023-09-19T14:05:27;22.10;76.40
46754;DHT22;32500;50.620;3.400;2023-09-19T14:08:16;22.10;76.60
46754;DHT22;32500;50.620;3.400;2023-09-19T14:11:06;22.00;76.60
46754;DHT22;32500;50.620;3.400;2023-09-19T14:13:34;22.10;76.90
46754;DHT22;32500;50.620;3.400;2023-09-19T14:19:34;22.00;77.20
46754;DHT22;32500;50.620;3.400;2023-09-19T14:22:03;21.90;77.20
46754;DHT22;32500;50.620;3.400;2023-09-19T14:28:13;21.90;77.60
46754;DHT22;32500;50.620;3.400;2023-09-19T14:30:47;21.80;77.70
46754;DHT22;32500;50.620;3.400;2023-09-19T14:33:14;21.80;78.10
46754;DHT22;32500;50.620;3.400;2023-09-19T14:36:06;21.80;78.10
46754;DHT22;32500;50.620;3.400;2023-09-19T14:41:45;21.80;78.00
46754;DHT22;32500;50.620;3.400;2023-09-19T14:48:17;21.80;78.00
46754;DHT22;32500;50.620;3.400;2023-09-19T14:50:48;21.70;78.30
46754;DHT22;32500;50.620;3.400;2023-09-19T14:53:16;21.70;78.50
46754;DHT22;32500;50.620;3.400;2023-09-19T14:56:34;21.60;78.40
46754;DHT22;32500;50.620;3.400;2023-09-19T14:59:12;21.60;78.80
46754;DHT22;32500;50.620;3.400;2023-09-19T15:02:13;21.60;78.60
46754;DHT22;32500;50.620;3.400;2023-09-19T15:04:47;21.50;78.80
46754;DHT22;32500;50.620;3.400;2023-09-19T15:07:43;21.50;79.40
46754;DHT22;32500;50.620;3.400;2023-09-19T15:10:17;21.50;79.80
46754;DHT22;32500;50.620;3.400;2023-09-19T15:16:36;21.40;79.30
46754;DHT22;32500;50.620;3.400;2023-09-19T15:22:16;21.40;79.40
46754;DHT22;32500;50.620;3.400;2023-09-19T15:25:16;21.40;79.30
46754;DHT22;32500;50.620;3.400;2023-09-19T15:27:47;21.50;79.10
46754;DHT22;32500;50.620;3.400;2023-09-19T15:33:47;21.40;79.50
46754;DHT22;32500;50.620;3.400;2023-09-19T15:43:26;21.30;79.50
46754;DHT22;32500;50.620;3.400;2023-09-19T15:46:18;21.30;79.60
46754;DHT22;32500;50.620;3.400;2023-09-19T16:10:05;21.20;81.10
46754;DHT22;32500;50.620;3.400;2023-09-19T16:12:46;21.20;81.10
46754;DHT22;32500;50.620;3.400;2023-09-19T16:15:15;21.10;81.60
46754;DHT22;32500;50.620;3.400;2023-09-19T17:57:18;20.50;86.30
46754;DHT22;32500;50.620;3.400;2023-09-19T18:03:59;20.40;86.00
46754;DHT22;32500;50.620;3.400;2023-09-19T18:06:44;20.40;86.10
46754;DHT22;32500;50.620;3.400;2023-09-19T18:09:22;20.40;86.10
46754;DHT22;32500;50.620;3.400;2023-09-19T18:11:52;20.40;85.80
46754;DHT22;32500;50.620;3.400;2023-09-19T18:24:20;20.40;86.20
46754;DHT22;32500;50.620;3.400;2023-09-19T18:26:46;20.40;86.50
46754;DHT22;32500;50.620;3.400;2023-09-19T18:34:15;20.40;87.90
46754;DHT22;32500;50.620;3.400;2023-09-19T18:36:41;20.40;88.70
46754;DHT22;32500;50.620;3.400;2023-09-19T18:39:06;20.40;88.80
46754;DHT22;32500;50.620;3.400;2023-09-19T18:41:33;20.40;89.90
46754;DHT22;32500;50.620;3.400;2023-09-19T18:44:02;20.40;89.60
46754;DHT22;32500;50.620;3.400;2023-09-19T18:46:27;20.40;89.20
46754;DHT22;32500;50.620;3.400;2023-09-19T18:48:55;20.40;89.40
46754;DHT22;32500;50.620;3.400;2023-09-19T18:51:21;20.40;89.40
46754;DHT22;32500;50.620;3.400;2023-09-19T18:53:50;20.40;89.10
46754;DHT22;32500;50.620;3.400;2023-09-19T18:56:16;20.40;89.60
46754;DHT22;32500;50.620;3.400;2023-09-19T18:58:44;20.40;90.00
46754;DHT22;32500;50.620;3.400;2023-09-19T19:01:10;20.30;89.80
46754;DHT22;32500;50.620;3.400;2023-09-19T19:03:37;20.40;90.10
46754;DHT22;32500;50.620;3.400;2023-09-19T19:06:09;20.30;90.20
46754;DHT22;32500;50.620;3.400;2023-09-19T19:08:36;20.40;90.20
46754;DHT22;32500;50.620;3.400;2023-09-19T19:11:17;20.30;90.30
46754;DHT22;32500;50.620;3.400;2023-09-19T19:42:47;20.30;91.10
46754;DHT22;32500;50.620;3.400;2023-09-19T19:53:02;20.30;91.50
46754;DHT22;32500;50.620;3.400;2023-09-19T19:56:09;20.30;91.70
46754;DHT22;32500;50.620;3.400;2023-09-19T20:16:45;20.30;91.90
46754;DHT22;32500;50.620;3.400;2023-09-19T20:19:11;20.30;91.50
46754;DHT22;32500;50.620;3.400;2023-09-19T20:21:59;20.30;91.60
46754;DHT22;32500;50.620;3.400;2023-09-19T20:24:41;20.30;92.10
46754;DHT22;32500;50.620;3.400;2023-09-19T20:27:27;20.30;92.00
46754;DHT22;32500;50.620;3.400;2023-09-19T20:33:53;20.30;92.20
46754;DHT22;32500;50.620;3.400;2023-09-19T20:36:40;20.30;91.90
46754;DHT22;32500;50.620;3.400;2023-09-19T20:39:06;20.30;91.70
46754;DHT22;32500;50.620;3.400;2023-09-19T20:42:11;20.30;91.40
46754;DHT22;32500;50.620;3.400;2023-09-19T20:55:04;20.20;91.70
46754;DHT22;32500;50.620;3.400;2023-09-19T21:04:45;20.30;91.60
46754;DHT22;32500;50.620;3.400;2023-09-19T21:20:36;20.20;92.00
46754;DHT22;32500;50.620;3.400;2023-09-19T21:26:53;20.20;92.10
46754;DHT22;32500;50.620;3.400;2023-09-19T21:33:42;20.10;91.80
46754;DHT22;32500;50.620;3.400;2023-09-19T21:56:14;20.10;92.10
46754;DHT22;32500;50.620;3.400;2023-09-19T21:59:09;20.10;92.30
46754;DHT22;32500;50.620;3.400;2023-09-19T22:01:43;20.00;91.90
46754;DHT22;32500;50.620;3.400;2023-09-19T22:04:40;20.00;91.90
46754;DHT22;32500;50.620;3.400;2023-09-19T22:07:41;20.00;92.10
46754;DHT22;32500;50.620;3.400;2023-09-19T22:13:46;20.00;91.90
46754;DHT22;32500;50.620;3.400;2023-09-19T22:16:46;20.00;92.40
46754;DHT22;32500;50.620;3.400;2023-09-19T22:19:13;19.90;92.40
46754;DHT22;32500;50.620;3.400;2023-09-19T22:25:13;19.90;91.90
46754;DHT22;32500;50.620;3.400;2023-09-19T22:32:14;19.90;91.90
46754;DHT22;32500;50.620;3.400;2023-09-19T22:38:28;19.90;92.50
46754;DHT22;32500;50.620;3.400;2023-09-19T22:40:57;19.90;92.10
46754;DHT22;32500;50.620;3.400;2023-09-19T22:47:03;19.80;92.40
46754;DHT22;32500;50.620;3.400;2023-09-19T22:50:03;19.90;92.50
46754;DHT22;32500;50.620;3.400;2023-09-19T22:56:42;19.80;92.30
46754;DHT22;32500;50.620;3.400;2023-09-19T22:59:27;19.80;92.50
46754;DHT22;32500;50.620;3.400;2023-09-19T23:06:05;19.80;92.80
46754;DHT22;32500;50.620;3.400;2023-09-19T23:08:34;19.80;92.40
46754;DHT22;32500;50.620;3.400;2023-09-19T23:11:34;19.80;92.50
46754;DHT22;32500;50.620;3.400;2023-09-19T23:21:13;19.80;92.40
46754;DHT22;32500;50.620;3.400;2023-09-19T23:24:35;19.80;92.60
46754;DHT22;32500;50.620;3.400;2023-09-19T23:27:42;19.80;92.00
46754;DHT22;32500;50.620;3.400;2023-09-19T23:33:44;19.80;92.20
46754;DHT22;32500;50.620;3.400;2023-09-19T23:50:40;19.80;92.30
46754;DHT22;32500;50.620;3.400;2023-09-19T23:53:14;19.80;92.70
46754;DHT22;32500;50.620;3.400;2023-09-19T23:59:07;19.80;92.50
